sensor_id;sensor_type;location;lat;lon;timestamp;temperature;humidity
15556;DHT22;7879;48.660;9.116;2023-04-24T00:01:02;10.00;99.90
15556;DHT22;7879;48.660;9.116;2023-04-24T00:03:29;10.00;99.90
15556;DHT22;7879;48.660;9.116;2023-04-24T00:05:56;10.00;99.90
15556;DHT22;7879;48.660;9.116;2023-04-24T00:08:23;10.00;99.90
15556;DHT22;7879;48.660;9.116;2023-04-24T00:10:50;10.00;99.90
15556;DHT22;7879;48.660;9.116;2023-04-24T00:13:18;10.00;99.90
15556;DHT22;7879;48.660;9.116;2023-04-24T00:15:45;10.00;99.90
15556;DHT22;7879;48.660;9.116;2023-04-24T00:18:12;10.00;99.90
15556;DHT22;7879;48.660;9.116;2023-04-24T00:20:39;10.00;99.90
15556;DHT22;7879;48.660;9.116;2023-04-24T00:23:06;10.00;99.90
15556;DHT22;7879;48.660;9.116;2023-04-24T00:25:33;9.90;99.90
15556;DHT22;7879;48.660;9.116;2023-04-24T00:28:00;10.00;99.90
15556;DHT22;7879;48.660;9.116;2023-04-24T00:30:26;9.90;99.90
15556;DHT22;7879;48.660;9.116;2023-04-24T00:32:53;9.90;99.90
15556;DHT22;7879;48.660;9.116;2023-04-24T00:35:20;10.00;99.90
15556;DHT22;7879;48.660;9.116;2023-04-24T00:37:47;9.90;99.90
15556;DHT22;7879;48.660;9.116;2023-04-24T00:40:14;9.90;99.90
15556;DHT22;7879;48.660;9.116;2023-04-24T00:42:40;9.90;99.90
15556;DHT22;7879;48.660;9.116;2023-04-24T00:45:08;9.90;99.90
15556;DHT22;7879;48.660;9.116;2023-04-24T00:47:35;9.90;99.90
15556;DHT22;7879;48.660;9.116;2023-04-24T00:50:04;9.90;99.90
15556;DHT22;7879;48.660;9.116;2023-04-24T00:52:32;9.90;99.90
15556;DHT22;7879;48.660;9.116;2023-04-24T00:54:59;9.90;99.90
15556;DHT22;7879;48.660;9.116;2023-04-24T00:57:26;9.90;99.90
15556;DHT22;7879;48.660;9.116;2023-04-24T00:59:53;9.90;99.90
15556;DHT22;7879;48.660;9.116;2023-04-24T01:02:21;9.90;99.90
15556;DHT22;7879;48.660;9.116;2023-04-24T01:04:52;9.90;99.90
15556;DHT22;7879;48.660;9.116;2023-04-24T01:07:20;9.90;99.90
15556;DHT22;7879;48.660;9.116;2023-04-24T01:09:48;9.80;99.90
15556;DHT22;7879;48.660;9.116;2023-04-24T01:12:18;9.90;99.90
15556;DHT22;7879;48.660;9.116;2023-04-24T01:14:45;9.90;99.90
15556;DHT22;7879;48.660;9.116;2023-04-24T01:17:12;9.90;99.90
15556;DHT22;7879;48.660;9.116;2023-04-24T01:19:39;9.90;99.90
15556;DHT22;7879;48.660;9.116;2023-04-24T01:22:12;9.90;99.90
15556;DHT22;7879;48.660;9.116;2023-04-24T01:24:39;9.90;99.90
15556;DHT22;7879;48.660;9.116;2023-04-24T01:27:07;9.90;99.90
15556;DHT22;7879;48.660;9.116;2023-04-24T01:29:34;9.90;99.90
15556;DHT22;7879;48.660;9.116;2023-04-24T01:32:03;9.90;99.90
15556;DHT22;7879;48.660;9.116;2023-04-24T01:34:30;9.90;99.90
15556;DHT22;7879;48.660;9.116;2023-04-24T01:36:57;9.80;99.90
15556;DHT22;7879;48.660;9.116;2023-04-24T01:39:24;9.90;99.90
15556;DHT22;7879;48.660;9.116;2023-04-24T01:41:52;9.90;99.90
15556;DHT22;7879;48.660;9.116;2023-04-24T01:44:20;9.80;99.90
15556;DHT22;7879;48.660;9.116;2023-04-24T01:46:47;9.80;99.90
15556;DHT22;7879;48.660;9.116;2023-04-24T01:49:14;9.70;99.90
15556;DHT22;7879;48.660;9.116;2023-04-24T01:51:41;9.70;99.90
15556;DHT22;7879;48.660;9.116;2023-04-24T01:54:07;9.70;99.90
15556;DHT22;7879;48.660;9.116;2023-04-24T01:56:35;9.70;99.90
15556;DHT22;7879;48.660;9.116;2023-04-24T01:59:03;9.70;99.90
15556;DHT22;7879;48.660;9.116;2023-04-24T02:01:34;9.70;99.90
15556;DHT22;7879;48.660;9.116;2023-04-24T02:04:03;9.70;99.90
15556;DHT22;7879;48.660;9.116;2023-04-24T02:06:30;9.70;99.90
15556;DHT22;7879;48.660;9.116;2023-04-24T02:09:01;9.60;99.90
15556;DHT22;7879;48.660;9.116;2023-04-24T02:11:28;9.70;99.90
15556;DHT22;7879;48.660;9.116;2023-04-24T02:13:54;9.70;99.90
15556;DHT22;7879;48.660;9.116;2023-04-24T02:16:21;9.70;99.90
15556;DHT22;7879;48.660;9.116;2023-04-24T02:18:48;9.70;99.90
15556;DHT22;7879;48.660;9.116;2023-04-24T02:21:15;9.70;99.90
15556;DHT22;7879;48.660;9.116;2023-04-24T02:23:41;9.60;99.90
15556;DHT22;7879;48.660;9.116;2023-04-24T02:26:08;9.60;99.90
15556;DHT22;7879;48.660;9.116;2023-04-24T02:28:35;9.60;99.90
15556;DHT22;7879;48.660;9.116;2023-04-24T02:31:02;9.60;99.90
15556;DHT22;7879;48.660;9.116;2023-04-24T02:33:28;9.60;99.90
15556;DHT22;7879;48.660;9.116;2023-04-24T02:35:55;9.60;99.90
15556;DHT22;7879;48.660;9.116;2023-04-24T02:38:22;9.50;99.90
15556;DHT22;7879;48.660;9.116;2023-04-24T02:40:49;9.50;99.90
15556;DHT22;7879;48.660;9.116;2023-04-24T02:43:15;9.50;99.90
15556;DHT22;7879;48.660;9.116;2023-04-24T02:45:42;9.50;99.90
15556;DHT22;7879;48.660;9.116;2023-04-24T02:48:09;9.50;99.90
15556;DHT22;7879;48.660;9.116;2023-04-24T02:50:36;9.40;99.90
15556;DHT22;7879;48.660;9.116;2023-04-24T02:53:02;9.50;99.90
15556;DHT22;7879;48.660;9.116;2023-04-24T02:55:29;9.50;99.90
15556;DHT22;7879;48.660;9.116;2023-04-24T02:57:56;9.60;99.90
15556;DHT22;7879;48.660;9.116;2023-04-24T03:00:23;9.50;99.90
15556;DHT22;7879;48.660;9.116;2023-04-24T03:02:50;9.50;99.90
15556;DHT22;7879;48.660;9.116;2023-04-24T03:05:17;9.50;99.90
15556;DHT22;7879;48.660;9.116;2023-04-24T03:07:43;9.50;99.90
15556;DHT22;7879;48.660;9.116;2023-04-24T03:10:12;9.50;99.90
15556;DHT22;7879;48.660;9.116;2023-04-24T03:12:38;9.50;99.90
15556;DHT22;7879;48.660;9.116;2023-04-24T03:15:06;9.50;99.90
15556;DHT22;7879;48.660;9.116;2023-04-24T03:17:33;9.40;99.90
15556;DHT22;7879;48.660;9.116;2023-04-24T03:19:59;9.40;99.90
15556;DHT22;7879;48.660;9.116;2023-04-24T03:22:26;9.50;99.90
15556;DHT22;7879;48.660;9.116;2023-04-24T03:24:53;9.40;99.90
15556;DHT22;7879;48.660;9.116;2023-04-24T03:27:21;9.40;99.90
15556;DHT22;7879;48.660;9.116;2023-04-24T03:29:48;9.40;99.90
15556;DHT22;7879;48.660;9.116;2023-04-24T03:32:14;9.30;99.90
15556;DHT22;7879;48.660;9.116;2023-04-24T03:34:41;9.30;99.90
15556;DHT22;7879;48.660;9.116;2023-04-24T03:37:08;9.30;99.90
15556;DHT22;7879;48.660;9.116;2023-04-24T03:39:35;9.30;99.90
15556;DHT22;7879;48.660;9.116;2023-04-24T03:42:01;9.30;99.90
15556;DHT22;7879;48.660;9.116;2023-04-24T03:44:29;9.30;99.90
15556;DHT22;7879;48.660;9.116;2023-04-24T03:46:55;9.20;99.90
15556;DHT22;7879;48.660;9.116;2023-04-24T03:49:22;9.30;99.90
15556;DHT22;7879;48.660;9.116;2023-04-24T03:51:49;9.20;99.90
15556;DHT22;7879;48.660;9.116;2023-04-24T03:54:15;9.20;99.90
15556;DHT22;7879;48.660;9.116;2023-04-24T03:56:42;9.10;99.90
15556;DHT22;7879;48.660;9.116;2023-04-24T03:59:09;9.10;99.90
15556;DHT22;7879;48.660;9.116;2023-04-24T04:01:36;9.10;99.90
15556;DHT22;7879;48.660;9.116;2023-04-24T04:04:06;9.00;99.90
15556;DHT22;7879;48.660;9.116;2023-04-24T04:06:34;9.00;99.90
15556;DHT22;7879;48.660;9.116;2023-04-24T04:09:02;9.00;99.90
15556;DHT22;7879;48.660;9.116;2023-04-24T04:11:29;9.00;99.90
15556;DHT22;7879;48.660;9.116;2023-04-24T04:13:59;9.00;99.90
15556;DHT22;7879;48.660;9.116;2023-04-24T04:16:26;9.00;99.90
15556;DHT22;7879;48.660;9.116;2023-04-24T04:18:52;9.00;99.90
15556;DHT22;7879;48.660;9.116;2023-04-24T04:21:19;9.10;99.90
15556;DHT22;7879;48.660;9.116;2023-04-24T04:23:46;9.00;99.90
15556;DHT22;7879;48.660;9.116;2023-04-24T04:26:13;9.10;99.90
15556;DHT22;7879;48.660;9.116;2023-04-24T04:28:40;9.10;99.90
15556;DHT22;7879;48.660;9.116;2023-04-24T04:31:07;9.10;99.90
15556;DHT22;7879;48.660;9.116;2023-04-24T04:33:37;9.10;99.90
15556;DHT22;7879;48.660;9.116;2023-04-24T04:36:05;9.10;99.90
15556;DHT22;7879;48.660;9.116;2023-04-24T04:38:32;9.10;99.90
15556;DHT22;7879;48.660;9.116;2023-04-24T04:41:00;9.10;99.90
15556;DHT22;7879;48.660;9.116;2023-04-24T04:43:27;9.20;99.90
15556;DHT22;7879;48.660;9.116;2023-04-24T04:45:54;9.10;99.90
15556;DHT22;7879;48.660;9.116;2023-04-24T04:48:22;8.90;99.90
15556;DHT22;7879;48.660;9.116;2023-04-24T04:50:49;8.90;99.90
15556;DHT22;7879;48.660;9.116;2023-04-24T04:53:20;8.80;99.90
15556;DHT22;7879;48.660;9.116;2023-04-24T04:55:47;8.70;99.90
15556;DHT22;7879;48.660;9.116;2023-04-24T04:58:13;8.70;99.90
15556;DHT22;7879;48.660;9.116;2023-04-24T05:00:40;8.60;99.90
15556;DHT22;7879;48.660;9.116;2023-04-24T05:03:09;8.60;99.90
15556;DHT22;7879;48.660;9.116;2023-04-24T05:05:47;8.70;99.90
15556;DHT22;7879;48.660;9.116;2023-04-24T05:08:13;8.60;99.90
15556;DHT22;7879;48.660;9.116;2023-04-24T05:10:43;8.60;99.90
15556;DHT22;7879;48.660;9.116;2023-04-24T05:13:10;8.60;99.90
15556;DHT22;7879;48.660;9.116;2023-04-24T05:15:39;8.60;99.90
15556;DHT22;7879;48.660;9.116;2023-04-24T05:18:06;8.60;99.90
15556;DHT22;7879;48.660;9.116;2023-04-24T05:20:33;8.60;99.90
15556;DHT22;7879;48.660;9.116;2023-04-24T05:23:00;8.60;99.90
15556;DHT22;7879;48.660;9.116;2023-04-24T05:25:27;8.60;99.90
15556;DHT22;7879;48.660;9.116;2023-04-24T05:27:53;8.60;99.90
15556;DHT22;7879;48.660;9.116;2023-04-24T05:30:20;8.60;99.90
15556;DHT22;7879;48.660;9.116;2023-04-24T05:32:47;8.60;99.90
15556;DHT22;7879;48.660;9.116;2023-04-24T05:35:14;8.60;99.90
15556;DHT22;7879;48.660;9.116;2023-04-24T05:37:41;8.70;99.90
15556;DHT22;7879;48.660;9.116;2023-04-24T05:40:08;8.70;99.90
15556;DHT22;7879;48.660;9.116;2023-04-24T05:42:35;8.70;99.90
15556;DHT22;7879;48.660;9.116;2023-04-24T05:45:02;8.60;99.90
15556;DHT22;7879;48.660;9.116;2023-04-24T05:47:29;8.70;99.90
15556;DHT22;7879;48.660;9.116;2023-04-24T05:49:56;8.70;99.90
15556;DHT22;7879;48.660;9.116;2023-04-24T05:52:23;8.70;99.90
15556;DHT22;7879;48.660;9.116;2023-04-24T05:54:50;8.70;99.90
15556;DHT22;7879;48.660;9.116;2023-04-24T05:57:32;8.70;99.90
15556;DHT22;7879;48.660;9.116;2023-04-24T05:59:59;8.70;99.90
15556;DHT22;7879;48.660;9.116;2023-04-24T06:02:26;8.70;99.90
15556;DHT22;7879;48.660;9.116;2023-04-24T06:04:56;8.70;99.90
15556;DHT22;7879;48.660;9.116;2023-04-24T06:07:32;8.70;99.90
15556;DHT22;7879;48.660;9.116;2023-04-24T06:10:07;8.70;99.90
15556;DHT22;7879;48.660;9.116;2023-04-24T06:12:37;8.70;99.90
15556;DHT22;7879;48.660;9.116;2023-04-24T06:15:10;8.80;99.90
15556;DHT22;7879;48.660;9.116;2023-04-24T06:17:51;8.70;99.90
15556;DHT22;7879;48.660;9.116;2023-04-24T06:20:18;8.70;99.90
15556;DHT22;7879;48.660;9.116;2023-04-24T06:22:48;8.80;99.90
15556;DHT22;7879;48.660;9.116;2023-04-24T06:25:15;8.80;99.90
15556;DHT22;7879;48.660;9.116;2023-04-24T06:27:45;8.80;99.90
15556;DHT22;7879;48.660;9.116;2023-04-24T06:30:12;8.80;99.90
15556;DHT22;7879;48.660;9.116;2023-04-24T06:32:42;9.00;99.90
15556;DHT22;7879;48.660;9.116;2023-04-24T06:35:15;9.10;99.90
15556;DHT22;7879;48.660;9.116;2023-04-24T06:37:59;9.10;99.90
15556;DHT22;7879;48.660;9.116;2023-04-24T06:40:37;9.20;99.90
15556;DHT22;7879;48.660;9.116;2023-04-24T06:43:12;9.30;99.90
15556;DHT22;7879;48.660;9.116;2023-04-24T06:45:43;9.20;99.90
15556;DHT22;7879;48.660;9.116;2023-04-24T06:48:17;9.40;99.90
15556;DHT22;7879;48.660;9.116;2023-04-24T06:51:14;9.40;99.90
15556;DHT22;7879;48.660;9.116;2023-04-24T06:54:00;9.50;99.90
15556;DHT22;7879;48.660;9.116;2023-04-24T06:56:48;9.60;99.90
15556;DHT22;7879;48.660;9.116;2023-04-24T06:59:31;9.60;99.90
15556;DHT22;7879;48.660;9.116;2023-04-24T07:02:11;9.60;99.90
15556;DHT22;7879;48.660;9.116;2023-04-24T07:04:40;9.60;99.90
15556;DHT22;7879;48.660;9.116;2023-04-24T07:07:17;9.50;99.90
15556;DHT22;7879;48.660;9.116;2023-04-24T07:09:51;9.50;99.90
15556;DHT22;7879;48.660;9.116;2023-04-24T07:12:22;9.50;99.90
15556;DHT22;7879;48.660;9.116;2023-04-24T07:15:00;9.60;99.90
15556;DHT22;7879;48.660;9.116;2023-04-24T07:17:38;9.60;99.90
15556;DHT22;7879;48.660;9.116;2023-04-24T07:20:29;9.70;99.90
15556;DHT22;7879;48.660;9.116;2023-04-24T07:22:56;9.60;99.90
15556;DHT22;7879;48.660;9.116;2023-04-24T07:25:23;9.50;99.90
15556;DHT22;7879;48.660;9.116;2023-04-24T07:27:54;9.30;99.90
15556;DHT22;7879;48.660;9.116;2023-04-24T07:30:24;9.30;99.90
15556;DHT22;7879;48.660;9.116;2023-04-24T07:32:54;9.20;99.90
15556;DHT22;7879;48.660;9.116;2023-04-24T07:35:22;9.20;99.90
15556;DHT22;7879;48.660;9.116;2023-04-24T07:37:55;9.20;99.90
15556;DHT22;7879;48.660;9.116;2023-04-24T07:40:26;9.40;99.90
15556;DHT22;7879;48.660;9.116;2023-04-24T07:42:55;9.40;99.90
15556;DHT22;7879;48.660;9.116;2023-04-24T07:45:25;9.50;99.90
15556;DHT22;7879;48.660;9.116;2023-04-24T07:47:54;9.60;99.90
15556;DHT22;7879;48.660;9.116;2023-04-24T07:50:23;9.70;99.90
15556;DHT22;7879;48.660;9.116;2023-04-24T07:52:50;9.90;99.90
15556;DHT22;7879;48.660;9.116;2023-04-24T07:55:17;10.10;99.90
15556;DHT22;7879;48.660;9.116;2023-04-24T07:57:47;10.20;99.90
15556;DHT22;7879;48.660;9.116;2023-04-24T08:00:14;10.20;99.90
15556;DHT22;7879;48.660;9.116;2023-04-24T08:02:41;10.20;99.90
15556;DHT22;7879;48.660;9.116;2023-04-24T08:05:08;10.20;99.90
15556;DHT22;7879;48.660;9.116;2023-04-24T08:07:36;10.20;99.90
15556;DHT22;7879;48.660;9.116;2023-04-24T08:10:03;10.30;99.90
15556;DHT22;7879;48.660;9.116;2023-04-24T08:12:33;10.30;99.90
15556;DHT22;7879;48.660;9.116;2023-04-24T08:15:00;10.30;99.90
15556;DHT22;7879;48.660;9.116;2023-04-24T08:17:27;10.40;99.90
15556;DHT22;7879;48.660;9.116;2023-04-24T08:19:56;10.30;99.90
15556;DHT22;7879;48.660;9.116;2023-04-24T08:22:28;10.30;99.90
15556;DHT22;7879;48.660;9.116;2023-04-24T08:24:55;10.10;99.90
15556;DHT22;7879;48.660;9.116;2023-04-24T08:27:23;10.10;99.90
15556;DHT22;7879;48.660;9.116;2023-04-24T08:29:53;9.90;99.90
15556;DHT22;7879;48.660;9.116;2023-04-24T08:32:20;10.00;99.90
15556;DHT22;7879;48.660;9.116;2023-04-24T08:34:47;10.10;99.90
15556;DHT22;7879;48.660;9.116;2023-04-24T08:37:15;10.20;99.90
15556;DHT22;7879;48.660;9.116;2023-04-24T08:39:42;10.30;99.90
15556;DHT22;7879;48.660;9.116;2023-04-24T08:42:15;10.40;99.90
15556;DHT22;7879;48.660;9.116;2023-04-24T08:44:51;10.50;99.90
15556;DHT22;7879;48.660;9.116;2023-04-24T08:47:20;10.70;99.90
15556;DHT22;7879;48.660;9.116;2023-04-24T08:50:05;10.90;99.90
15556;DHT22;7879;48.660;9.116;2023-04-24T08:52:33;10.80;99.90
15556;DHT22;7879;48.660;9.116;2023-04-24T08:55:00;10.70;99.90
15556;DHT22;7879;48.660;9.116;2023-04-24T08:57:29;10.60;99.90
15556;DHT22;7879;48.660;9.116;2023-04-24T08:59:58;10.50;99.90
15556;DHT22;7879;48.660;9.116;2023-04-24T09:02:25;10.40;99.90
15556;DHT22;7879;48.660;9.116;2023-04-24T09:04:56;10.50;99.90
15556;DHT22;7879;48.660;9.116;2023-04-24T09:07:27;10.60;99.90
15556;DHT22;7879;48.660;9.116;2023-04-24T09:09:59;10.70;99.90
15556;DHT22;7879;48.660;9.116;2023-04-24T09:12:26;11.00;99.90
15556;DHT22;7879;48.660;9.116;2023-04-24T09:14:54;11.00;99.90
15556;DHT22;7879;48.660;9.116;2023-04-24T09:17:21;11.00;99.90
15556;DHT22;7879;48.660;9.116;2023-04-24T09:19:49;10.90;99.90
15556;DHT22;7879;48.660;9.116;2023-04-24T09:22:16;11.00;99.90
15556;DHT22;7879;48.660;9.116;2023-04-24T09:24:45;11.00;99.90
15556;DHT22;7879;48.660;9.116;2023-04-24T09:27:12;11.10;99.90
15556;DHT22;7879;48.660;9.116;2023-04-24T09:29:56;11.30;99.90
15556;DHT22;7879;48.660;9.116;2023-04-24T09:32:27;11.60;99.90
15556;DHT22;7879;48.660;9.116;2023-04-24T09:35:12;12.00;99.90
15556;DHT22;7879;48.660;9.116;2023-04-24T09:37:45;12.20;99.90
15556;DHT22;7879;48.660;9.116;2023-04-24T09:40:17;12.40;99.90
15556;DHT22;7879;48.660;9.116;2023-04-24T09:42:45;12.60;99.90
15556;DHT22;7879;48.660;9.116;2023-04-24T09:45:12;12.70;99.90
15556;DHT22;7879;48.660;9.116;2023-04-24T09:47:42;12.80;99.90
15556;DHT22;7879;48.660;9.116;2023-04-24T09:50:13;12.80;99.90
15556;DHT22;7879;48.660;9.116;2023-04-24T09:55:46;13.00;99.90
15556;DHT22;7879;48.660;9.116;2023-04-24T09:58:26;12.90;99.90
15556;DHT22;7879;48.660;9.116;2023-04-24T10:00:56;12.90;99.90
15556;DHT22;7879;48.660;9.116;2023-04-24T10:03:24;12.60;99.90
15556;DHT22;7879;48.660;9.116;2023-04-24T10:05:58;12.20;99.90
15556;DHT22;7879;48.660;9.116;2023-04-24T10:08:26;12.00;99.90
15556;DHT22;7879;48.660;9.116;2023-04-24T10:11:00;11.90;99.90
15556;DHT22;7879;48.660;9.116;2023-04-24T10:13:29;12.00;99.90
15556;DHT22;7879;48.660;9.116;2023-04-24T10:15:59;12.20;99.90
15556;DHT22;7879;48.660;9.116;2023-04-24T10:18:30;12.70;99.90
15556;DHT22;7879;48.660;9.116;2023-04-24T10:20:57;12.70;99.90
15556;DHT22;7879;48.660;9.116;2023-04-24T10:23:31;13.20;99.90
15556;DHT22;7879;48.660;9.116;2023-04-24T10:26:01;13.10;99.90
15556;DHT22;7879;48.660;9.116;2023-04-24T10:28:36;12.70;99.90
15556;DHT22;7879;48.660;9.116;2023-04-24T10:31:03;12.60;99.90
15556;DHT22;7879;48.660;9.116;2023-04-24T10:33:31;12.50;99.90
15556;DHT22;7879;48.660;9.116;2023-04-24T10:36:00;12.40;99.90
15556;DHT22;7879;48.660;9.116;2023-04-24T10:38:29;12.20;99.90
15556;DHT22;7879;48.660;9.116;2023-04-24T10:41:13;12.00;99.90
15556;DHT22;7879;48.660;9.116;2023-04-24T10:43:46;12.20;99.90
15556;DHT22;7879;48.660;9.116;2023-04-24T10:46:28;12.30;99.90
15556;DHT22;7879;48.660;9.116;2023-04-24T10:48:56;12.40;99.90
15556;DHT22;7879;48.660;9.116;2023-04-24T10:54:33;12.40;99.90
15556;DHT22;7879;48.660;9.116;2023-04-24T11:00:10;11.90;99.90
15556;DHT22;7879;48.660;9.116;2023-04-24T11:02:42;11.90;99.90
15556;DHT22;7879;48.660;9.116;2023-04-24T11:05:17;11.90;99.90
15556;DHT22;7879;48.660;9.116;2023-04-24T11:08:16;11.90;99.90
15556;DHT22;7879;48.660;9.116;2023-04-24T11:16:29;12.20;99.90
15556;DHT22;7879;48.660;9.116;2023-04-24T11:24:39;12.40;99.90
15556;DHT22;7879;48.660;9.116;2023-04-24T11:27:15;12.20;99.90
15556;DHT22;7879;48.660;9.116;2023-04-24T11:35:08;12.00;99.90
15556;DHT22;7879;48.660;9.116;2023-04-24T11:37:44;11.80;99.90
15556;DHT22;7879;48.660;9.116;2023-04-24T11:40:37;11.70;99.90
15556;DHT22;7879;48.660;9.116;2023-04-24T11:43:06;11.80;99.90
15556;DHT22;7879;48.660;9.116;2023-04-24T11:45:34;11.70;99.90
15556;DHT22;7879;48.660;9.116;2023-04-24T11:48:02;11.70;99.90
15556;DHT22;7879;48.660;9.116;2023-04-24T11:50:29;11.70;99.90
15556;DHT22;7879;48.660;9.116;2023-04-24T11:52:57;11.80;99.90
15556;DHT22;7879;48.660;9.116;2023-04-24T11:55:26;11.80;99.90
15556;DHT22;7879;48.660;9.116;2023-04-24T11:57:58;11.70;99.90
15556;DHT22;7879;48.660;9.116;2023-04-24T12:00:27;11.70;99.90
15556;DHT22;7879;48.660;9.116;2023-04-24T12:03:09;11.70;99.90
15556;DHT22;7879;48.660;9.116;2023-04-24T12:05:36;11.90;99.90
15556;DHT22;7879;48.660;9.116;2023-04-24T12:08:08;12.00;99.90
15556;DHT22;7879;48.660;9.116;2023-04-24T12:10:40;11.90;99.90
15556;DHT22;7879;48.660;9.116;2023-04-24T12:13:09;11.90;99.90
15556;DHT22;7879;48.660;9.116;2023-04-24T12:15:40;11.90;99.90
15556;DHT22;7879;48.660;9.116;2023-04-24T12:18:12;11.70;99.90
15556;DHT22;7879;48.660;9.116;2023-04-24T12:20:40;11.60;99.90
15556;DHT22;7879;48.660;9.116;2023-04-24T12:23:11;11.50;99.90
15556;DHT22;7879;48.660;9.116;2023-04-24T12:25:38;11.50;99.90
15556;DHT22;7879;48.660;9.116;2023-04-24T12:30:35;11.60;99.90
15556;DHT22;7879;48.660;9.116;2023-04-24T12:33:03;11.70;99.90
15556;DHT22;7879;48.660;9.116;2023-04-24T12:35:32;11.70;99.90
15556;DHT22;7879;48.660;9.116;2023-04-24T12:38:11;11.70;99.90
15556;DHT22;7879;48.660;9.116;2023-04-24T12:40:40;11.70;99.90
15556;DHT22;7879;48.660;9.116;2023-04-24T12:43:18;11.70;99.90
15556;DHT22;7879;48.660;9.116;2023-04-24T12:45:48;11.80;99.90
15556;DHT22;7879;48.660;9.116;2023-04-24T12:48:15;11.60;99.90
15556;DHT22;7879;48.660;9.116;2023-04-24T12:50:42;11.60;99.90
15556;DHT22;7879;48.660;9.116;2023-04-24T12:53:12;11.60;99.90
15556;DHT22;7879;48.660;9.116;2023-04-24T12:55:39;11.60;99.90
15556;DHT22;7879;48.660;9.116;2023-04-24T12:58:07;11.70;99.90
15556;DHT22;7879;48.660;9.116;2023-04-24T13:00:34;11.80;99.90
15556;DHT22;7879;48.660;9.116;2023-04-24T13:03:01;11.80;99.90
15556;DHT22;7879;48.660;9.116;2023-04-24T13:05:30;11.60;99.90
15556;DHT22;7879;48.660;9.116;2023-04-24T13:07:57;11.70;99.90
15556;DHT22;7879;48.660;9.116;2023-04-24T13:10:24;11.70;99.90
15556;DHT22;7879;48.660;9.116;2023-04-24T13:12:51;11.80;99.90
15556;DHT22;7879;48.660;9.116;2023-04-24T13:15:18;11.80;99.90
15556;DHT22;7879;48.660;9.116;2023-04-24T13:17:45;11.90;99.90
15556;DHT22;7879;48.660;9.116;2023-04-24T13:20:12;12.00;99.90
15556;DHT22;7879;48.660;9.116;2023-04-24T13:22:39;12.00;99.90
15556;DHT22;7879;48.660;9.116;2023-04-24T13:25:06;11.80;99.90
15556;DHT22;7879;48.660;9.116;2023-04-24T13:27:33;11.80;99.90
15556;DHT22;7879;48.660;9.116;2023-04-24T13:30:00;11.90;99.90
15556;DHT22;7879;48.660;9.116;2023-04-24T13:32:27;11.70;99.90
15556;DHT22;7879;48.660;9.116;2023-04-24T13:34:56;11.70;99.90
15556;DHT22;7879;48.660;9.116;2023-04-24T13:37:23;11.60;99.90
15556;DHT22;7879;48.660;9.116;2023-04-24T13:39:50;11.70;99.90
15556;DHT22;7879;48.660;9.116;2023-04-24T13:42:18;11.60;99.90
15556;DHT22;7879;48.660;9.116;2023-04-24T13:44:45;11.60;99.90
15556;DHT22;7879;48.660;9.116;2023-04-24T13:47:12;11.50;99.90
15556;DHT22;7879;48.660;9.116;2023-04-24T13:49:39;11.50;99.90
15556;DHT22;7879;48.660;9.116;2023-04-24T13:52:06;11.50;99.90
15556;DHT22;7879;48.660;9.116;2023-04-24T13:54:33;11.60;99.90
15556;DHT22;7879;48.660;9.116;2023-04-24T13:57:01;11.40;99.90
15556;DHT22;7879;48.660;9.116;2023-04-24T13:59:30;11.40;99.90
15556;DHT22;7879;48.660;9.116;2023-04-24T14:01:57;11.40;99.90
15556;DHT22;7879;48.660;9.116;2023-04-24T14:04:24;11.40;99.90
15556;DHT22;7879;48.660;9.116;2023-04-24T14:06:51;11.40;99.90
15556;DHT22;7879;48.660;9.116;2023-04-24T14:09:18;11.50;99.90
15556;DHT22;7879;48.660;9.116;2023-04-24T14:11:45;11.50;99.90
15556;DHT22;7879;48.660;9.116;2023-04-24T14:14:12;11.40;99.90
15556;DHT22;7879;48.660;9.116;2023-04-24T14:16:39;11.40;99.90
15556;DHT22;7879;48.660;9.116;2023-04-24T14:19:06;11.40;99.90
15556;DHT22;7879;48.660;9.116;2023-04-24T14:21:33;11.40;99.90
15556;DHT22;7879;48.660;9.116;2023-04-24T14:24:00;11.30;99.90
15556;DHT22;7879;48.660;9.116;2023-04-24T14:26:27;11.30;99.90
15556;DHT22;7879;48.660;9.116;2023-04-24T14:28:54;11.20;99.90
15556;DHT22;7879;48.660;9.116;2023-04-24T14:31:32;11.20;99.90
15556;DHT22;7879;48.660;9.116;2023-04-24T14:33:59;11.20;99.90
15556;DHT22;7879;48.660;9.116;2023-04-24T14:36:32;11.20;99.90
15556;DHT22;7879;48.660;9.116;2023-04-24T14:38:59;11.20;99.90
15556;DHT22;7879;48.660;9.116;2023-04-24T14:41:26;11.20;99.90
15556;DHT22;7879;48.660;9.116;2023-04-24T14:43:53;11.30;99.90
15556;DHT22;7879;48.660;9.116;2023-04-24T14:46:20;11.40;99.90
15556;DHT22;7879;48.660;9.116;2023-04-24T14:48:47;11.40;99.90
15556;DHT22;7879;48.660;9.116;2023-04-24T14:51:14;11.50;99.90
15556;DHT22;7879;48.660;9.116;2023-04-24T14:53:41;11.60;99.90
15556;DHT22;7879;48.660;9.116;2023-04-24T14:56:08;11.60;99.90
15556;DHT22;7879;48.660;9.116;2023-04-24T14:58:35;11.60;99.90
15556;DHT22;7879;48.660;9.116;2023-04-24T15:01:01;11.70;99.90
15556;DHT22;7879;48.660;9.116;2023-04-24T15:03:28;11.80;99.90
15556;DHT22;7879;48.660;9.116;2023-04-24T15:05:56;11.80;99.90
15556;DHT22;7879;48.660;9.116;2023-04-24T15:08:24;11.70;99.90
15556;DHT22;7879;48.660;9.116;2023-04-24T15:10:50;11.60;99.90
15556;DHT22;7879;48.660;9.116;2023-04-24T15:13:18;11.70;99.90
15556;DHT22;7879;48.660;9.116;2023-04-24T15:15:48;11.80;99.90
15556;DHT22;7879;48.660;9.116;2023-04-24T15:18:20;11.80;99.90
15556;DHT22;7879;48.660;9.116;2023-04-24T15:20:51;11.80;99.90
15556;DHT22;7879;48.660;9.116;2023-04-24T15:23:21;11.80;99.90
15556;DHT22;7879;48.660;9.116;2023-04-24T15:25:49;11.90;99.90
15556;DHT22;7879;48.660;9.116;2023-04-24T15:28:19;11.80;99.90
15556;DHT22;7879;48.660;9.116;2023-04-24T15:30:46;11.80;99.90
15556;DHT22;7879;48.660;9.116;2023-04-24T15:33:13;11.70;99.90
15556;DHT22;7879;48.660;9.116;2023-04-24T15:35:40;11.60;99.90
15556;DHT22;7879;48.660;9.116;2023-04-24T15:38:07;11.60;99.90
15556;DHT22;7879;48.660;9.116;2023-04-24T15:40:34;11.50;99.90
15556;DHT22;7879;48.660;9.116;2023-04-24T15:43:01;11.40;99.90
15556;DHT22;7879;48.660;9.116;2023-04-24T15:45:28;11.40;99.90
15556;DHT22;7879;48.660;9.116;2023-04-24T15:47:55;11.50;99.90
15556;DHT22;7879;48.660;9.116;2023-04-24T15:50:22;11.50;99.90
15556;DHT22;7879;48.660;9.116;2023-04-24T15:52:49;11.50;99.90
15556;DHT22;7879;48.660;9.116;2023-04-24T15:55:16;11.50;99.90
15556;DHT22;7879;48.660;9.116;2023-04-24T15:57:43;11.50;99.90
15556;DHT22;7879;48.660;9.116;2023-04-24T16:00:10;11.40;99.90
15556;DHT22;7879;48.660;9.116;2023-04-24T16:02:38;11.30;99.90
15556;DHT22;7879;48.660;9.116;2023-04-24T16:05:05;11.40;99.90
15556;DHT22;7879;48.660;9.116;2023-04-24T16:07:33;11.40;99.90
15556;DHT22;7879;48.660;9.116;2023-04-24T16:10:00;11.50;99.90
15556;DHT22;7879;48.660;9.116;2023-04-24T16:12:26;11.50;99.90
15556;DHT22;7879;48.660;9.116;2023-04-24T16:14:53;11.50;99.90
15556;DHT22;7879;48.660;9.116;2023-04-24T16:17:21;11.50;99.90
15556;DHT22;7879;48.660;9.116;2023-04-24T16:19:47;11.60;99.90
15556;DHT22;7879;48.660;9.116;2023-04-24T16:22:15;11.60;99.90
15556;DHT22;7879;48.660;9.116;2023-04-24T16:24:42;11.50;99.90
15556;DHT22;7879;48.660;9.116;2023-04-24T16:27:10;11.50;99.90
15556;DHT22;7879;48.660;9.116;2023-04-24T16:29:36;11.50;99.90
15556;DHT22;7879;48.660;9.116;2023-04-24T16:32:03;11.50;99.90